Forside
METAR-TAF:

METAR-TAF

Lufthavne :

Muscatine, Iowa, USA

Breddekreds: 41-22N, længdekreds: 091-09W, højde: 167 m

Aktuelle vejr

Denne rapport blev lavet for 15 minutter siden, kl. 19:55 UTC
Vind 12 kt fra syd med vindstød på up til 18 kt
Temperatur 11°C
Fugtighed 40%
Tryk 1019 hPa
Sigt: 16.1 km
skyfri

METAR: KMUT 221955Z AUTO 19012G18KT 10SM CLR 11/M02 A3010 RMK AO2

Tid: 14:10 (20:10 UTC)


TAF: fraværende

Vejrobservationer og prognoser fra mere end 4000 lufthavne (METAR og TAF).

De gule og røde prikker repræsenterer de meteorologiske stationer.

Flyt musen over at se navnet på stationen.

Så klik over at se vejr observationer og prognoser.

At skifte det kort: Klik på de grønne knapper med et sort kors for at zoome ind; på den grønne knap med en bindestreg for at zoome ud; eller på de grønne pile for tilstødende kort.


METAR-TAF: